createdAt,value
2016-09-30T00:00:01.867Z,15.38
2016-09-30T00:01:01.861Z,15.33
2016-09-30T00:02:01.850Z,15.41
2016-09-30T00:03:02.141Z,15.33
2016-09-30T00:04:01.821Z,15.43
2016-09-30T00:05:01.809Z,15.42
2016-09-30T00:06:01.794Z,15.38
2016-09-30T00:07:01.793Z,15.41
2016-09-30T00:08:01.770Z,15.43
2016-09-30T00:09:01.767Z,15.43
2016-09-30T00:10:01.753Z,15.41
2016-09-30T00:11:01.739Z,15.41
2016-09-30T00:12:01.730Z,15.36
2016-09-30T00:13:01.717Z,15.35
2016-09-30T00:14:01.705Z,15.43
2016-09-30T00:15:01.694Z,15.28
2016-09-30T00:16:01.695Z,15.42
2016-09-30T00:17:01.670Z,15.33
2016-09-30T00:18:01.661Z,15.42
2016-09-30T00:19:01.651Z,15.41
2016-09-30T00:20:01.638Z,15.33
2016-09-30T00:21:01.630Z,15.41
2016-09-30T00:22:01.626Z,15.36
2016-09-30T00:23:02.259Z,15.42
2016-09-30T00:24:01.598Z,15.39
2016-09-30T00:25:01.588Z,15.36
2016-09-30T00:26:01.580Z,15.38
2016-09-30T00:27:01.887Z,15.31
2016-09-30T00:28:01.553Z,15.38
2016-09-30T00:29:01.543Z,15.33
2016-09-30T00:30:01.730Z,15.36
2016-09-30T00:31:01.837Z,15.3
2016-09-30T00:32:01.506Z,15.33
2016-09-30T00:33:01.499Z,15.3
2016-09-30T00:34:01.490Z,15.38
2016-09-30T00:35:01.473Z,15.31
2016-09-30T00:36:01.471Z,15.36
2016-09-30T00:37:01.453Z,15.39
2016-09-30T00:38:01.442Z,15.3
2016-09-30T00:39:01.434Z,15.33
2016-09-30T00:40:01.416Z,15.36
2016-09-30T00:41:01.412Z,15.38
2016-09-30T00:42:01.398Z,15.39
2016-09-30T00:43:01.401Z,15.33
2016-09-30T00:44:01.391Z,15.38
2016-09-30T00:45:01.368Z,15.27
2016-09-30T00:46:01.372Z,15.35
2016-09-30T00:47:01.350Z,15.33
2016-09-30T00:48:01.967Z,15.28
2016-09-30T00:49:01.320Z,15.28
2016-09-30T00:50:01.517Z,15.28
2016-09-30T00:51:01.306Z,15.39
2016-09-30T00:52:01.283Z,15.38
2016-09-30T00:53:01.597Z,15.31
2016-09-30T00:54:01.581Z,15.27
2016-09-30T00:55:01.278Z,15.19
2016-09-30T00:56:01.991Z,15.21
2016-09-30T00:57:01.234Z,15.19
2016-09-30T00:58:01.222Z,15.27
2016-09-30T00:59:01.215Z,15.3
2016-09-30T01:00:01.206Z,15.28
2016-09-30T01:01:01.190Z,15.36
2016-09-30T01:02:01.176Z,15.27
2016-09-30T01:03:01.171Z,15.38
2016-09-30T01:04:01.158Z,15.35
2016-09-30T01:05:01.142Z,15.33
2016-09-30T01:06:01.133Z,15.31
2016-09-30T01:07:01.123Z,15.31
2016-09-30T01:08:01.113Z,15.38
2016-09-30T01:09:01.100Z,15.3
2016-09-30T01:10:01.090Z,15.3
2016-09-30T01:11:01.080Z,15.31
2016-09-30T01:12:01.065Z,15.23
2016-09-30T01:13:01.057Z,15.26
2016-09-30T01:14:01.048Z,15.24
2016-09-30T01:15:01.035Z,15.33
2016-09-30T01:16:01.024Z,15.28
2016-09-30T01:17:01.637Z,15.33
2016-09-30T01:18:01.001Z,15.3
2016-09-30T01:19:00.992Z,15.39
2016-09-30T01:20:00.997Z,15.35
2016-09-30T01:21:00.972Z,15.36
2016-09-30T01:22:00.956Z,15.36
2016-09-30T01:23:00.949Z,15.35
2016-09-30T01:24:00.935Z,15.36
2016-09-30T01:25:00.928Z,15.31
2016-09-30T01:26:00.919Z,15.31
2016-09-30T01:27:00.903Z,15.39
2016-09-30T01:28:00.898Z,15.39
2016-09-30T01:29:00.882Z,15.39
2016-09-30T01:30:01.184Z,15.33
2016-09-30T01:31:00.856Z,15.31
2016-09-30T01:32:00.847Z,15.31
2016-09-30T01:33:00.839Z,15.31
2016-09-30T01:34:00.823Z,15.41
2016-09-30T01:35:01.130Z,15.3
2016-09-30T01:36:01.117Z,15.39
2016-09-30T01:37:01.109Z,15.33
2016-09-30T01:38:00.815Z,15.31
2016-09-30T01:39:00.767Z,15.33
2016-09-30T01:40:00.758Z,15.3
2016-09-30T01:41:00.782Z,15.24
2016-09-30T01:42:00.737Z,15.26
2016-09-30T01:43:01.040Z,15.27
2016-09-30T01:44:00.717Z,15.17
2016-09-30T01:45:00.703Z,15.26
2016-09-30T01:46:01.057Z,15.26
2016-09-30T01:47:00.707Z,15.38
2016-09-30T01:48:00.671Z,15.28
2016-09-30T01:49:00.656Z,15.3
2016-09-30T01:50:00.967Z,15.24
2016-09-30T01:51:00.953Z,15.24
2016-09-30T01:52:00.938Z,15.28
2016-09-30T01:53:00.620Z,15.26
2016-09-30T01:54:00.600Z,15.31
2016-09-30T01:55:00.911Z,15.35
2016-09-30T01:56:00.635Z,15.28
2016-09-30T01:57:00.571Z,15.26
2016-09-30T01:58:00.558Z,15.21
2016-09-30T01:59:00.543Z,15.3
2016-09-30T02:00:00.536Z,15.24
2016-09-30T02:01:00.839Z,15.35
2016-09-30T02:02:00.828Z,15.38
2016-09-30T02:03:00.504Z,15.23
2016-09-30T02:04:00.493Z,15.21
2016-09-30T02:05:00.483Z,15.31
2016-09-30T02:06:00.782Z,15.24
2016-09-30T02:07:00.456Z,15.24
2016-09-30T02:08:00.450Z,15.3
2016-09-30T02:09:00.429Z,15.21
2016-09-30T02:10:00.430Z,15.21
2016-09-30T02:11:00.413Z,15.24
2016-09-30T02:12:00.715Z,15.31
2016-09-30T02:13:00.392Z,15.3
2016-09-30T02:14:00.376Z,15.21
2016-09-30T02:15:00.369Z,15.3
2016-09-30T02:16:00.392Z,15.23
2016-09-30T02:17:00.347Z,15.3
2016-09-30T02:18:00.340Z,15.26
2016-09-30T02:19:00.323Z,15.19
2016-09-30T02:20:00.312Z,15.27
2016-09-30T02:21:00.299Z,15.26
2016-09-30T02:22:00.603Z,15.23
2016-09-30T02:23:00.622Z,15.27
2016-09-30T02:24:00.272Z,15.26
2016-09-30T02:25:00.265Z,15.31
2016-09-30T02:26:00.247Z,15.27
2016-09-30T02:27:00.242Z,15.27
2016-09-30T02:28:00.227Z,15.23
2016-09-30T02:29:00.235Z,15.26
2016-09-30T02:30:00.202Z,15.28
2016-09-30T02:31:00.184Z,15.24
2016-09-30T02:32:00.176Z,15.27
2016-09-30T02:33:00.180Z,15.24
2016-09-30T02:34:00.476Z,15.2
2016-09-30T02:35:00.459Z,15.27
2016-09-30T02:36:00.137Z,15.28
2016-09-30T02:37:00.123Z,15.28
2016-09-30T02:38:00.115Z,15.27
2016-09-30T02:39:00.105Z,15.23
2016-09-30T02:40:00.088Z,15.24
2016-09-30T02:41:00.074Z,15.28
2016-09-30T02:42:00.383Z,15.26
2016-09-30T02:43:00.052Z,15.31
2016-09-30T02:44:00.042Z,15.28
2016-09-30T02:45:00.348Z,15.28
2016-09-30T02:46:00.019Z,15.23
2016-09-30T02:47:00.320Z,15.27
2016-09-30T02:48:00.312Z,15.3
2016-09-30T02:48:59.992Z,15.2
2016-09-30T02:50:15.619Z,15.28
2016-09-30T02:50:59.964Z,15.26
2016-09-30T02:51:59.972Z,15.21
2016-09-30T02:52:59.940Z,15.27
2016-09-30T02:53:59.930Z,15.27
2016-09-30T02:54:59.923Z,15.26
2016-09-30T02:55:59.929Z,15.27
2016-09-30T02:56:59.950Z,15.26
2016-09-30T02:58:00.207Z,15.23
2016-09-30T02:58:59.887Z,15.31
2016-09-30T02:59:59.893Z,15.3
2016-09-30T03:00:59.857Z,15.24
2016-09-30T03:01:59.843Z,15.3
2016-09-30T03:02:59.832Z,15.26
2016-09-30T03:03:59.817Z,15.35
2016-09-30T03:04:59.812Z,15.27
2016-09-30T03:05:59.806Z,15.23
2016-09-30T03:07:00.446Z,15.3
2016-09-30T03:07:59.791Z,15.31
2016-09-30T03:09:00.091Z,15.3
2016-09-30T03:09:59.758Z,15.31
2016-09-30T03:10:59.749Z,15.31
2016-09-30T03:11:59.759Z,15.39
2016-09-30T03:12:59.726Z,15.36
2016-09-30T03:13:59.705Z,15.35
2016-09-30T03:15:00.013Z,15.28
2016-09-30T03:15:59.696Z,15.3
2016-09-30T03:16:59.676Z,15.35
2016-09-30T03:17:59.983Z,15.35
2016-09-30T03:18:59.657Z,15.33
2016-09-30T03:19:59.959Z,15.35
2016-09-30T03:20:59.964Z,15.35
2016-09-30T03:21:59.622Z,15.27
2016-09-30T03:22:59.621Z,15.21
2016-09-30T03:23:59.601Z,15.3
2016-09-30T03:24:59.593Z,15.39
2016-09-30T03:25:59.896Z,15.24
2016-09-30T03:26:59.568Z,15.35
2016-09-30T03:27:59.871Z,15.21
2016-09-30T03:28:59.557Z,15.24
2016-09-30T03:29:59.541Z,15.28
2016-09-30T03:30:59.842Z,15.27
2016-09-30T03:31:59.514Z,15.26
2016-09-30T03:32:59.504Z,15.24
2016-09-30T03:33:59.493Z,15.27
2016-09-30T03:34:59.795Z,15.21
2016-09-30T03:35:59.782Z,15.19
2016-09-30T03:36:59.479Z,15.2
2016-09-30T03:37:59.453Z,15.2
2016-09-30T03:38:59.438Z,15.19
2016-09-30T03:39:59.422Z,15.21
2016-09-30T03:40:59.413Z,15.19
2016-09-30T03:41:59.401Z,15.15
2016-09-30T03:42:59.390Z,15.09
2016-09-30T03:43:59.375Z,15.13
2016-09-30T03:44:59.683Z,15.17
2016-09-30T03:45:59.354Z,15.12
2016-09-30T03:46:59.345Z,15.17
2016-09-30T03:47:59.345Z,15.11
2016-09-30T03:48:59.637Z,15.17
2016-09-30T03:49:59.312Z,15.11
2016-09-30T03:50:59.301Z,15.15
2016-09-30T03:51:59.601Z,15.13
2016-09-30T03:52:59.278Z,15.12
2016-09-30T03:53:59.272Z,15.13
2016-09-30T03:54:59.264Z,15.17
2016-09-30T03:55:59.245Z,15.12
2016-09-30T03:56:59.231Z,15.11
2016-09-30T03:57:59.221Z,15.13
2016-09-30T03:58:59.210Z,15.12
2016-09-30T03:59:59.202Z,15.12
2016-09-30T04:00:59.503Z,15.12
2016-09-30T04:01:59.193Z,15.17
2016-09-30T04:02:59.167Z,15.23
2016-09-30T04:03:59.469Z,15.23
2016-09-30T04:04:59.143Z,15.17
2016-09-30T04:05:59.445Z,15.2
2016-09-30T04:06:59.125Z,15.27
2016-09-30T04:07:59.117Z,15.24
2016-09-30T04:08:59.413Z,15.24
2016-09-30T04:09:59.087Z,15.23
2016-09-30T04:10:59.593Z,15.27
2016-09-30T04:11:59.379Z,15.28
2016-09-30T04:12:59.375Z,15.26
2016-09-30T04:13:59.049Z,15.3
2016-09-30T04:14:59.032Z,15.23
2016-09-30T04:15:59.023Z,15.28
2016-09-30T04:16:59.702Z,15.28
2016-09-30T04:17:59.328Z,15.24
2016-09-30T04:18:58.994Z,15.3
2016-09-30T04:19:59.303Z,15.35
2016-09-30T04:20:58.970Z,15.36
2016-09-30T04:21:58.958Z,15.33
2016-09-30T04:22:59.265Z,15.3
2016-09-30T04:23:58.939Z,15.26
2016-09-30T04:24:58.924Z,15.33
2016-09-30T04:25:59.230Z,15.23
2016-09-30T04:26:58.902Z,15.3
2016-09-30T04:27:59.236Z,15.19
2016-09-30T04:28:59.215Z,15.27
2016-09-30T04:29:58.876Z,15.3
2016-09-30T04:30:58.864Z,15.24
2016-09-30T04:31:58.849Z,15.26
2016-09-30T04:32:59.147Z,15.27
2016-09-30T04:33:58.832Z,15.3
2016-09-30T04:34:59.134Z,15.28
2016-09-30T04:35:58.803Z,15.35
2016-09-30T04:36:58.797Z,15.3
2016-09-30T04:37:58.784Z,15.24
2016-09-30T04:38:58.774Z,15.3
2016-09-30T04:39:58.770Z,15.26
2016-09-30T04:40:58.748Z,15.21
2016-09-30T04:41:58.739Z,15.21
2016-09-30T04:42:59.041Z,15.24
2016-09-30T04:43:58.722Z,15.19
2016-09-30T04:44:59.033Z,15.17
2016-09-30T04:45:58.695Z,15.21
2016-09-30T04:46:59.000Z,15.15
2016-09-30T04:47:58.675Z,15.08
2016-09-30T04:48:58.661Z,15.06
2016-09-30T04:49:58.648Z,15.17
2016-09-30T04:50:58.640Z,15.17
2016-09-30T04:51:58.628Z,15.05
2016-09-30T04:52:58.931Z,15.15
2016-09-30T04:53:58.603Z,15.03
2016-09-30T04:54:58.909Z,15.06
2016-09-30T04:55:58.580Z,15.09
2016-09-30T04:56:58.573Z,15.06
2016-09-30T04:57:58.561Z,14.98
2016-09-30T04:58:58.550Z,14.98
2016-09-30T04:59:58.539Z,14.94
2016-09-30T05:00:58.527Z,14.99
2016-09-30T05:01:58.514Z,14.88
2016-09-30T05:02:58.510Z,14.93
2016-09-30T05:03:58.491Z,14.93
2016-09-30T05:04:58.500Z,14.9
2016-09-30T05:05:58.478Z,14.9
2016-09-30T05:06:58.462Z,14.8
2016-09-30T05:07:58.507Z,14.87
2016-09-30T05:08:58.443Z,14.84
2016-09-30T05:09:58.425Z,14.83
2016-09-30T05:10:58.493Z,14.83
2016-09-30T05:11:58.743Z,14.88
2016-09-30T05:12:58.404Z,14.81
2016-09-30T05:13:58.387Z,14.72
2016-09-30T05:14:58.689Z,14.75
2016-09-30T05:15:58.363Z,14.75
2016-09-30T05:16:58.348Z,14.74
2016-09-30T05:17:58.652Z,14.72
2016-09-30T05:18:58.328Z,14.74
2016-09-30T05:19:58.313Z,14.75
2016-09-30T05:20:58.307Z,14.81
2016-09-30T05:21:58.295Z,14.69
2016-09-30T05:22:58.282Z,14.75
2016-09-30T05:23:58.278Z,14.69
2016-09-30T05:24:58.264Z,14.75
2016-09-30T05:25:58.259Z,14.75
2016-09-30T05:26:58.242Z,14.74
2016-09-30T05:27:58.537Z,14.74
2016-09-30T05:28:58.224Z,14.8
2016-09-30T05:29:58.205Z,14.87
2016-09-30T05:30:58.188Z,14.83
2016-09-30T05:31:58.506Z,14.9
2016-09-30T05:32:58.174Z,14.83
2016-09-30T05:33:58.481Z,14.87
2016-09-30T05:34:58.145Z,14.86
2016-09-30T05:35:58.447Z,14.78
2016-09-30T05:36:58.124Z,14.88
2016-09-30T05:37:58.118Z,14.87
2016-09-30T05:38:58.104Z,14.93
2016-09-30T05:39:58.724Z,14.9
2016-09-30T05:40:58.397Z,14.8
2016-09-30T05:41:58.079Z,14.87
2016-09-30T05:42:58.061Z,14.94
2016-09-30T05:43:58.358Z,14.87
2016-09-30T05:44:58.032Z,14.86
2016-09-30T05:45:58.033Z,14.88
2016-09-30T05:46:58.013Z,14.86
2016-09-30T05:47:57.998Z,14.84
2016-09-30T05:48:57.985Z,14.84
2016-09-30T05:49:58.049Z,14.86
2016-09-30T05:50:57.967Z,14.84
2016-09-30T05:51:57.954Z,14.84
2016-09-30T05:52:57.943Z,14.87
2016-09-30T05:53:58.246Z,14.86
2016-09-30T05:54:58.235Z,14.88
2016-09-30T05:55:57.922Z,14.87
2016-09-30T05:56:57.914Z,14.9
2016-09-30T05:57:57.887Z,14.87
2016-09-30T05:58:58.185Z,14.88
2016-09-30T05:59:57.878Z,14.88
2016-09-30T06:00:57.853Z,14.9
2016-09-30T06:01:57.843Z,14.81
2016-09-30T06:02:58.142Z,14.88
2016-09-30T06:03:58.185Z,14.84
2016-09-30T06:04:57.812Z,14.83
2016-09-30T06:05:57.794Z,14.87
2016-09-30T06:06:57.784Z,14.86
2016-09-30T06:07:57.776Z,14.88
2016-09-30T06:08:58.278Z,14.87
2016-09-30T06:09:57.754Z,14.91
2016-09-30T06:10:58.063Z,14.93
2016-09-30T06:11:57.730Z,14.86
2016-09-30T06:12:57.718Z,14.93
2016-09-30T06:13:58.017Z,14.87
2016-09-30T06:14:57.693Z,14.91
2016-09-30T06:15:57.688Z,14.95
2016-09-30T06:16:57.670Z,14.95
2016-09-30T06:17:57.980Z,14.95
2016-09-30T06:18:57.660Z,15.02
2016-09-30T06:19:57.640Z,14.99
2016-09-30T06:20:57.631Z,15.05
2016-09-30T06:21:57.616Z,14.98
2016-09-30T06:22:57.610Z,14.98
2016-09-30T06:23:57.906Z,15.01
2016-09-30T06:24:57.583Z,14.98
2016-09-30T06:25:57.570Z,15.03
2016-09-30T06:26:57.563Z,15.09
2016-09-30T06:27:57.551Z,15.05
2016-09-30T06:28:57.537Z,15.12
2016-09-30T06:29:57.532Z,15.09
2016-09-30T06:30:57.833Z,15.11
2016-09-30T06:31:57.506Z,15.13
2016-09-30T06:32:57.509Z,15.09
2016-09-30T06:33:57.482Z,15.13
2016-09-30T06:34:57.468Z,15.17
2016-09-30T06:35:57.467Z,15.05
2016-09-30T06:36:57.455Z,15.09
2016-09-30T06:37:57.451Z,15.11
2016-09-30T06:38:57.625Z,15.21
2016-09-30T06:39:57.735Z,15.12
2016-09-30T06:40:57.414Z,15.21
2016-09-30T06:41:57.398Z,15.2
2016-09-30T06:42:57.384Z,15.24
2016-09-30T06:43:57.387Z,15.17
2016-09-30T06:44:57.366Z,15.27
2016-09-30T06:45:57.665Z,15.27
2016-09-30T06:46:57.660Z,15.27
2016-09-30T06:47:57.344Z,15.24
2016-09-30T06:48:57.321Z,15.24
2016-09-30T06:49:57.309Z,15.27
2016-09-30T06:50:57.816Z,15.27
2016-09-30T06:51:57.299Z,15.33
2016-09-30T06:52:57.282Z,15.27
2016-09-30T06:53:57.273Z,15.27
2016-09-30T06:54:57.256Z,15.31
2016-09-30T06:55:57.247Z,15.26
2016-09-30T06:56:57.238Z,15.33
2016-09-30T06:57:57.238Z,15.33
2016-09-30T06:58:57.226Z,15.39
2016-09-30T06:59:57.204Z,15.39
2016-09-30T07:00:57.194Z,15.31
2016-09-30T07:01:57.510Z,15.33
2016-09-30T07:02:57.170Z,15.39
2016-09-30T07:03:57.167Z,15.41
2016-09-30T07:04:57.148Z,15.36
2016-09-30T07:06:57.130Z,15.41
2016-09-30T07:07:57.109Z,15.41
2016-09-30T07:08:57.111Z,15.42
2016-09-30T07:09:57.091Z,15.45
2016-09-30T07:10:57.080Z,15.43
2016-09-30T07:11:57.067Z,15.41
2016-09-30T07:12:57.058Z,15.48
2016-09-30T07:13:57.049Z,15.45
2016-09-30T07:14:57.046Z,15.46
2016-09-30T07:15:57.028Z,15.52
2016-09-30T07:16:57.659Z,15.52
2016-09-30T07:17:57.017Z,15.52
2016-09-30T07:18:57.317Z,15.52
2016-09-30T07:19:57.293Z,15.54
2016-09-30T07:20:56.969Z,15.57
2016-09-30T07:21:56.963Z,15.52
2016-09-30T07:22:56.949Z,15.54
2016-09-30T07:23:56.958Z,15.63
2016-09-30T07:24:57.243Z,15.59
2016-09-30T07:25:56.921Z,15.54
2016-09-30T07:26:56.907Z,15.61
2016-09-30T07:27:56.893Z,15.63
2016-09-30T07:28:56.883Z,15.61
2016-09-30T07:29:56.871Z,15.64
2016-09-30T07:30:56.864Z,15.61
2016-09-30T07:31:56.849Z,15.64
2016-09-30T07:32:56.846Z,15.63
2016-09-30T07:33:56.846Z,15.74
2016-09-30T07:34:57.130Z,15.74
2016-09-30T07:35:57.125Z,15.64
2016-09-30T07:36:56.798Z,15.64
2016-09-30T07:37:56.790Z,15.72
2016-09-30T07:38:57.315Z,15.72
2016-09-30T07:39:56.770Z,15.72
2016-09-30T07:40:56.758Z,15.74
2016-09-30T07:41:56.747Z,15.7
2016-09-30T07:42:56.736Z,15.76
2016-09-30T07:43:56.722Z,15.79
2016-09-30T07:44:56.717Z,15.81
2016-09-30T07:45:56.704Z,15.81
2016-09-30T07:46:57.324Z,15.89
2016-09-30T07:47:57.000Z,15.85
2016-09-30T07:48:56.704Z,15.92
2016-09-30T07:49:56.663Z,15.96
2016-09-30T07:50:56.648Z,15.93
2016-09-30T07:51:56.638Z,15.86
2016-09-30T07:52:56.834Z,15.93
2016-09-30T07:53:56.623Z,15.88
2016-09-30T07:54:56.613Z,15.96
2016-09-30T07:55:56.909Z,15.93
2016-09-30T07:56:56.904Z,16.04
2016-09-30T07:57:56.578Z,15.94
2016-09-30T07:59:56.877Z,16
2016-09-30T08:00:56.555Z,16.06
2016-09-30T08:01:56.534Z,16.07
2016-09-30T08:02:56.534Z,16.11
2016-09-30T08:03:56.522Z,16.09
2016-09-30T08:04:56.506Z,16.09
2016-09-30T08:05:56.507Z,16.06
2016-09-30T08:06:56.484Z,16.07
2016-09-30T08:07:56.475Z,16.01
2016-09-30T08:08:56.785Z,16.04
2016-09-30T08:09:56.457Z,16.12
2016-09-30T08:10:56.447Z,16.04
2016-09-30T08:11:56.441Z,16.16
2016-09-30T08:12:56.425Z,16.11
2016-09-30T08:13:56.413Z,16.14
2016-09-30T08:14:56.415Z,16.18
2016-09-30T08:15:56.398Z,16.11
2016-09-30T08:16:56.703Z,16.12
2016-09-30T08:17:56.380Z,16.16
2016-09-30T08:18:56.367Z,16.23
2016-09-30T08:19:56.366Z,16.23
2016-09-30T08:20:56.347Z,16.16
2016-09-30T08:21:56.537Z,16.15
2016-09-30T08:22:56.345Z,16.22
2016-09-30T08:23:56.630Z,16.16
2016-09-30T08:24:56.310Z,16.25
2016-09-30T08:25:56.312Z,16.31
2016-09-30T08:26:56.598Z,16.3
2016-09-30T08:27:56.282Z,16.41
2016-09-30T08:28:56.262Z,16.37
2016-09-30T08:29:56.257Z,16.33
2016-09-30T08:30:56.245Z,16.4
2016-09-30T08:31:56.235Z,16.38
2016-09-30T08:32:56.239Z,16.35
2016-09-30T08:33:56.529Z,16.3
2016-09-30T08:34:56.203Z,16.37
2016-09-30T08:35:56.200Z,16.4
2016-09-30T08:36:56.187Z,16.37
2016-09-30T08:37:56.177Z,16.38
2016-09-30T08:38:56.166Z,16.49
2016-09-30T08:39:56.472Z,16.49
2016-09-30T08:40:56.152Z,16.5
2016-09-30T08:41:56.134Z,16.52
2016-09-30T08:42:56.127Z,16.5
2016-09-30T08:43:56.122Z,16.55
2016-09-30T08:44:56.421Z,16.55
2016-09-30T08:45:56.104Z,16.55
2016-09-30T08:46:56.402Z,16.55
2016-09-30T08:47:56.086Z,16.55
2016-09-30T08:48:56.075Z,16.53
2016-09-30T08:49:56.065Z,16.6
2016-09-30T08:50:56.251Z,16.6
2016-09-30T08:51:56.043Z,16.58
2016-09-30T08:52:56.348Z,16.63
2016-09-30T08:53:56.018Z,16.67
2016-09-30T08:54:56.007Z,16.56
2016-09-30T08:55:56.314Z,16.6
2016-09-30T08:56:55.987Z,16.6
2016-09-30T08:57:56.292Z,16.6
2016-09-30T08:58:55.972Z,16.6
2016-09-30T08:59:55.970Z,16.62
2016-09-30T09:00:55.951Z,16.7
2016-09-30T09:01:55.940Z,16.73
2016-09-30T09:02:55.934Z,16.73
2016-09-30T09:03:55.923Z,16.75
2016-09-30T09:04:55.913Z,16.73
2016-09-30T09:05:55.906Z,16.81
2016-09-30T09:06:55.901Z,16.93
2016-09-30T09:07:56.201Z,16.85
2016-09-30T09:08:55.869Z,16.95
2016-09-30T09:09:55.871Z,16.99
2016-09-30T09:10:55.854Z,17.07
2016-09-30T09:11:55.847Z,17.07
2016-09-30T09:12:55.843Z,17.11
2016-09-30T09:13:55.827Z,17.17
2016-09-30T09:14:55.818Z,17.2
2016-09-30T09:15:55.860Z,17.22
2016-09-30T09:16:55.803Z,17.28
2016-09-30T09:17:55.886Z,17.3
2016-09-30T09:18:56.121Z,17.35
2016-09-30T09:19:55.774Z,17.48
2016-09-30T09:20:55.761Z,17.5
2016-09-30T09:21:56.069Z,17.4
2016-09-30T09:22:55.742Z,17.51
2016-09-30T09:23:56.056Z,17.53
2016-09-30T09:24:55.726Z,17.69
2016-09-30T09:25:56.052Z,17.64
2016-09-30T09:26:55.710Z,17.66
2016-09-30T09:27:56.014Z,17.66
2016-09-30T09:28:55.688Z,17.71
2016-09-30T09:29:55.686Z,17.67
2016-09-30T09:30:55.674Z,17.71
2016-09-30T09:31:55.661Z,17.76
2016-09-30T09:32:55.657Z,17.7
2016-09-30T09:33:55.649Z,17.79
2016-09-30T09:34:55.641Z,17.74
2016-09-30T09:35:55.632Z,17.84
2016-09-30T09:36:55.971Z,17.84
2016-09-30T09:37:55.958Z,17.85
2016-09-30T09:38:56.252Z,17.88
2016-09-30T09:39:55.613Z,17.95
2016-09-30T09:40:55.592Z,17.94
2016-09-30T09:41:55.579Z,18
2016-09-30T09:42:55.576Z,18.02
2016-09-30T09:43:55.563Z,18.1
2016-09-30T09:44:55.865Z,17.99
2016-09-30T09:45:55.547Z,17.95
2016-09-30T09:46:55.861Z,18
2016-09-30T09:47:55.531Z,18.02
2016-09-30T09:48:55.838Z,17.89
2016-09-30T09:49:55.520Z,17.87
2016-09-30T09:50:55.825Z,17.91
2016-09-30T09:51:55.502Z,17.97
2016-09-30T09:52:55.490Z,17.88
2016-09-30T09:53:55.481Z,17.87
2016-09-30T09:54:55.481Z,17.82
2016-09-30T09:55:55.466Z,17.81
2016-09-30T09:56:55.454Z,17.88
2016-09-30T09:57:55.451Z,17.92
2016-09-30T09:58:55.443Z,17.95
2016-09-30T09:59:55.433Z,17.97
2016-09-30T10:00:55.789Z,17.94
2016-09-30T10:01:55.418Z,18.13
2016-09-30T10:02:55.409Z,18.09
2016-09-30T10:03:55.400Z,18.09
2016-09-30T10:04:55.722Z,17.97
2016-09-30T10:05:55.699Z,17.95
2016-09-30T10:06:55.370Z,17.97
2016-09-30T10:07:55.380Z,17.94
2016-09-30T10:08:55.712Z,17.95
2016-09-30T10:09:55.351Z,18.09
2016-09-30T10:10:55.652Z,18.13
2016-09-30T10:11:55.333Z,18.13
2016-09-30T10:12:55.324Z,18.1
2016-09-30T10:13:55.319Z,18.28
2016-09-30T10:14:55.314Z,18.31
2016-09-30T10:15:55.301Z,18.43
2016-09-30T10:16:55.605Z,18.4
2016-09-30T10:17:55.286Z,18.59
2016-09-30T10:18:55.275Z,18.67
2016-09-30T10:19:55.269Z,18.74
2016-09-30T10:20:55.266Z,18.72
2016-09-30T10:21:55.268Z,18.79
2016-09-30T10:22:55.241Z,18.73
2016-09-30T10:23:55.259Z,18.77
2016-09-30T10:24:55.228Z,18.77
2016-09-30T10:25:55.218Z,18.8
2016-09-30T10:26:55.863Z,18.74
2016-09-30T10:27:55.526Z,18.83
2016-09-30T10:28:55.198Z,18.82
2016-09-30T10:29:55.199Z,18.87
2016-09-30T10:30:55.181Z,18.8
2016-09-30T10:31:55.180Z,18.79
2016-09-30T10:32:55.164Z,18.87
2016-09-30T10:33:55.159Z,18.9
2016-09-30T10:34:55.158Z,18.83
2016-09-30T10:35:55.150Z,18.76
2016-09-30T10:36:55.134Z,18.68
2016-09-30T10:37:55.127Z,18.57
2016-09-30T10:38:55.122Z,18.64
2016-09-30T10:39:55.107Z,18.74
2016-09-30T10:40:55.103Z,18.86
2016-09-30T10:41:55.099Z,18.9
2016-09-30T10:42:55.090Z,18.94
2016-09-30T10:43:55.416Z,18.92
2016-09-30T10:44:55.075Z,18.92
2016-09-30T10:45:55.069Z,18.87
2016-09-30T10:46:55.065Z,18.92
2016-09-30T10:47:55.374Z,18.91
2016-09-30T10:48:55.043Z,18.92
2016-09-30T10:49:55.041Z,18.97
2016-09-30T10:50:55.231Z,18.97
2016-09-30T10:51:55.023Z,18.92
2016-09-30T10:52:55.016Z,18.95
2016-09-30T10:53:55.007Z,18.82
2016-09-30T10:54:55.317Z,18.82
2016-09-30T10:55:54.995Z,18.84
2016-09-30T10:56:54.986Z,18.95
2016-09-30T10:57:54.976Z,18.92
2016-09-30T10:58:54.969Z,18.95
2016-09-30T10:59:54.962Z,18.98
2016-09-30T11:00:54.950Z,19.08
2016-09-30T11:01:54.948Z,19.13
2016-09-30T11:02:54.956Z,19.14
2016-09-30T11:03:54.931Z,19.17
2016-09-30T11:04:54.931Z,19.1
2016-09-30T11:05:54.928Z,19.13
2016-09-30T11:06:55.285Z,19.02
2016-09-30T11:07:54.913Z,19.06
2016-09-30T11:08:54.896Z,18.98
2016-09-30T11:09:54.889Z,19.06
2016-09-30T11:10:54.882Z,19.06
2016-09-30T11:11:55.192Z,19.08
2016-09-30T11:12:54.862Z,19.13
2016-09-30T11:13:55.178Z,19.14
2016-09-30T11:14:55.165Z,19.17
2016-09-30T11:15:55.157Z,18.95
2016-09-30T11:16:54.842Z,18.99
2016-09-30T11:17:54.831Z,18.97
2016-09-30T11:18:54.825Z,18.95
2016-09-30T11:19:55.129Z,18.98
2016-09-30T11:20:55.125Z,18.83
2016-09-30T11:21:54.802Z,18.79
2016-09-30T11:22:54.793Z,18.7
2016-09-30T11:23:54.785Z,18.64
2016-09-30T11:24:54.775Z,18.7
2016-09-30T11:25:54.773Z,18.67
2016-09-30T11:26:55.084Z,18.65
2016-09-30T11:27:55.066Z,18.67
2016-09-30T11:28:55.065Z,18.64
2016-09-30T11:29:54.739Z,18.74
2016-09-30T11:30:54.730Z,18.82
2016-09-30T11:31:55.037Z,18.82
2016-09-30T11:32:54.720Z,18.83
2016-09-30T11:33:54.729Z,18.72
2016-09-30T11:34:54.698Z,18.7
2016-09-30T11:35:54.696Z,18.73
2016-09-30T11:36:54.689Z,18.7
2016-09-30T11:37:54.684Z,18.8
2016-09-30T11:38:54.671Z,18.97
2016-09-30T11:39:54.665Z,18.99
2016-09-30T11:40:54.970Z,19.29
2016-09-30T11:41:54.656Z,19.48
2016-09-30T11:42:54.637Z,19.68
2016-09-30T11:43:54.953Z,19.72
2016-09-30T11:44:54.626Z,19.73
2016-09-30T11:45:54.636Z,19.68
2016-09-30T11:46:54.995Z,19.5
2016-09-30T11:47:54.924Z,19.4
2016-09-30T11:48:54.605Z,19.4
2016-09-30T11:49:54.598Z,19.39
2016-09-30T11:50:54.589Z,19.39
2016-09-30T11:51:54.580Z,19.38
2016-09-30T11:52:54.581Z,19.24
2016-09-30T11:53:54.570Z,19.13
2016-09-30T11:54:54.878Z,19.14
2016-09-30T11:55:54.557Z,19.15
2016-09-30T11:56:54.602Z,19.17
2016-09-30T11:57:54.544Z,19.33
2016-09-30T11:58:54.534Z,19.36
2016-09-30T11:59:54.545Z,19.48
2016-09-30T12:00:54.528Z,19.57
2016-09-30T12:01:54.572Z,19.63
2016-09-30T12:02:54.520Z,19.72
2016-09-30T12:03:54.502Z,19.75
2016-09-30T12:04:54.500Z,20
2016-09-30T12:05:54.498Z,20.13
2016-09-30T12:06:54.805Z,20.16
2016-09-30T12:07:54.499Z,20.21
2016-09-30T12:08:54.474Z,20.42
2016-09-30T12:09:54.801Z,20.56
2016-09-30T12:10:54.463Z,20.66
2016-09-30T12:11:55.185Z,20.65
2016-09-30T12:12:54.789Z,20.66
2016-09-30T12:13:54.457Z,20.5
2016-09-30T12:14:54.443Z,20.34
2016-09-30T12:15:54.445Z,20.24
2016-09-30T12:16:54.433Z,20.08
2016-09-30T12:17:54.424Z,19.86
2016-09-30T12:18:54.420Z,19.75
2016-09-30T12:19:54.762Z,19.66
2016-09-30T12:20:55.047Z,19.68
2016-09-30T12:21:54.751Z,19.66
2016-09-30T12:22:55.039Z,19.46
2016-09-30T12:23:54.718Z,19.33
2016-09-30T12:24:54.388Z,19.29
2016-09-30T12:25:54.379Z,19.25
2016-09-30T12:26:54.376Z,19.21
2016-09-30T12:27:54.372Z,19.2
2016-09-30T12:28:54.373Z,19.23
2016-09-30T12:29:54.353Z,18.97
2016-09-30T12:30:54.362Z,18.97
2016-09-30T12:31:54.666Z,18.91
2016-09-30T12:32:54.644Z,18.91
2016-09-30T12:33:54.338Z,18.8
2016-09-30T12:34:54.325Z,18.67
2016-09-30T12:35:54.312Z,18.64
2016-09-30T12:36:54.621Z,18.68
2016-09-30T12:37:54.300Z,18.62
2016-09-30T12:38:54.613Z,18.64
2016-09-30T12:39:54.285Z,18.72
2016-09-30T12:40:54.282Z,18.5
2016-09-30T12:41:54.274Z,18.57
2016-09-30T12:42:54.274Z,18.49
2016-09-30T12:43:54.255Z,18.61
2016-09-30T12:44:54.281Z,18.86
2016-09-30T12:45:54.246Z,19.39
2016-09-30T12:46:54.559Z,19.95
2016-09-30T12:47:54.477Z,20.3
2016-09-30T12:48:54.231Z,20.49
2016-09-30T12:49:54.215Z,20.68
2016-09-30T12:50:54.412Z,20.5
2016-09-30T12:51:54.387Z,20.66
2016-09-30T12:52:54.505Z,20.71
2016-09-30T12:53:54.195Z,20.93
2016-09-30T12:54:54.499Z,21.06
2016-09-30T12:55:54.178Z,21.19
2016-09-30T12:56:54.172Z,20.91